Kill Devil Hills, NC (27948)

12:23 PM EDT on October 01, 2014 (GMT -0400)
Cavalier | Change Station
CLOSE
Current Station
Personal Weather Station
Location: Kill Devil Hills, NC
Elevation: 0 ft
Nearby Weather Stations

Elev 0 ft 36.01 °N, 75.66 °W | Updated 3 hours ago

Scattered Clouds
Scattered Clouds
71.4 °F
Feels Like 71.4 °F
N
11.4
Wind Variable Wind from NNE
Gusts 12.8 mph

Today
High -- | Low -- °F
--% Chance of Precip.
Yesterday
High -- | Low -- °F
Precip. -- in
6:57 AM 6:46 PM
Waxing Crescent, 49% visible
Pressure 29.98 in
Visibility 10.0 miles
Clouds Scattered Clouds 1600 ft
Dew Point 69 °F
Humidity 91%
Rainfall 0.00 in
Snow Depth Not available.
UV 6 out of 12
Pollen 3.70 out of 12
Air Quality Not available.
Flu Activity Not available.
METAR KFFA 011615Z AUTO 35008G15KT 310V030 10SM SCT016 24/18 A2998 RMK AO2 T02350179

More Conditions Fewer Conditions

Pressure 29.98 in
Visibility 10.0 miles
Clouds Scattered Clouds 1600 ft
Dew Point 69 °F
Humidity 91%
Rainfall 0.00 in
Snow Depth Not available.
UV 6 out of 12
Pollen 3.70 out of 12
Air Quality Not available.
Flu Activity Not available.
METAR KFFA 011615Z AUTO 35008G15KT 310V030 10SM SCT016 24/18 A2998 RMK AO2 T02350179

More Conditions Fewer Conditions

10-Day Weather Forecast

Almanac

Astronomy

Oct. 01, 2014 Rise Set
Actual Time 6:57 AM EDT 6:46 PM EDT
Civil Twilight 6:32 AM EDT 7:11 PM EDT
Nautical Twilight 6:02 AM EDT 7:41 PM EDT
Astronomical Twilight 5:32 AM EDT 8:11 PM EDT
Moon 1:48 PM EDT No Moon Set
Length of Visible Light 12h 39m
Length of Day
11h 48m
Tomorrow will be 2m 15s shorter.
Waxing Crescent, 49% of the Moon is Illuminated
Today
Waxing Crescent
Oct 1
First Quarter
Oct 8
Full
Oct 15
Last Quarter
Oct 23
New

Today's Extremes

State Highs State Lows

Community

WunderPhotos

Upload Photos

1,757,980 photos uploaded!

WunderBlogs® & News

Nearby

Snow Depth

Station Depth Elevation
No new snow has been reported.

Earthquake Activity

City Distance Mag. Time & Date
No recent earthquake activity has been reported nearby.
Minimum magnitude displayed is 2.5.

Coastal Water Temperatures

Place Temperature
Oregon Inlet Marina, NC 73.0 °F
Duck Pier, NC 73.0 °F
Hatteras, NC 73.0 °F
Money Point, VA 73.9 °F
Sewells Point, VA 72.0 °F
Chesapeake Bay Bridge Tunnel, VA 72.0 °F

Nearby Weather Stations